createdAt,value
2022-10-07T00:00:51.194Z,66.31
2022-10-07T00:03:20.014Z,66.38
2022-10-07T00:05:47.719Z,66.88
2022-10-07T00:08:15.459Z,66.59
2022-10-07T00:10:44.096Z,66.77
2022-10-07T00:13:13.029Z,66.55
2022-10-07T00:15:40.652Z,66.70
2022-10-07T00:18:08.208Z,66.85
2022-10-07T00:20:38.431Z,66.52
2022-10-07T00:23:06.499Z,66.31
2022-10-07T00:25:36.626Z,66.66
2022-10-07T00:28:04.388Z,66.41
2022-10-07T00:30:33.437Z,66.51
2022-10-07T00:33:01.419Z,67.10
2022-10-07T00:35:28.979Z,66.84
2022-10-07T00:37:56.565Z,66.92
2022-10-07T00:40:24.205Z,66.57
2022-10-07T00:42:51.840Z,66.52
2022-10-07T00:45:21.241Z,65.58
2022-10-07T00:47:51.607Z,65.27
2022-10-07T00:50:25.106Z,65.50
2022-10-07T00:52:56.307Z,65.65
2022-10-07T00:55:26.918Z,65.63
2022-10-07T00:57:57.762Z,65.13
2022-10-07T01:00:25.465Z,65.38
2022-10-07T01:02:54.492Z,65.56
2022-10-07T01:05:22.468Z,66.11
2022-10-07T01:07:53.284Z,66.32
2022-10-07T01:10:24.370Z,67.07
2022-10-07T01:13:04.349Z,67.15
2022-10-07T01:15:38.509Z,67.36
2022-10-07T01:18:17.912Z,67.39
2022-10-07T01:20:54.026Z,67.37
2022-10-07T01:23:42.254Z,67.66
2022-10-07T01:26:41.071Z,67.84
2022-10-07T01:29:13.995Z,68.19
2022-10-07T01:31:47.347Z,67.81
2022-10-07T01:34:16.088Z,67.20
2022-10-07T01:36:51.855Z,67.27
2022-10-07T01:39:25.423Z,67.29
2022-10-07T01:41:54.558Z,66.63
2022-10-07T01:44:22.839Z,66.57
2022-10-07T01:46:50.448Z,66.40
2022-10-07T01:49:18.067Z,67.62
2022-10-07T01:51:53.714Z,67.46
2022-10-07T01:54:35.027Z,67.47
2022-10-07T01:57:18.261Z,67.75
2022-10-07T02:00:08.314Z,67.70
2022-10-07T02:02:59.995Z,67.86
2022-10-07T02:05:39.058Z,68.30
2022-10-07T02:08:23.156Z,68.56
2022-10-07T02:11:02.946Z,68.65
2022-10-07T02:13:37.759Z,68.50
2022-10-07T02:16:17.280Z,68.18
2022-10-07T02:18:49.885Z,67.79
2022-10-07T02:21:21.199Z,67.40
2022-10-07T02:23:50.233Z,67.45
2022-10-07T02:26:22.034Z,67.99
2022-10-07T02:28:54.158Z,68.32
2022-10-07T02:31:25.201Z,68.17
2022-10-07T02:33:57.129Z,68.05
2022-10-07T02:36:29.551Z,68.06
2022-10-07T02:39:00.281Z,68.17
2022-10-07T02:41:37.421Z,68.04
2022-10-07T02:44:14.556Z,67.83
2022-10-07T02:46:46.956Z,68.09
2022-10-07T02:49:18.829Z,68.21
2022-10-07T02:51:49.469Z,68.03
2022-10-07T02:54:21.367Z,67.71
2022-10-07T02:56:51.300Z,67.75
2022-10-07T02:59:21.378Z,67.27
2022-10-07T03:01:54.771Z,67.05
2022-10-07T03:04:23.347Z,67.37
2022-10-07T03:06:51.017Z,68.25
2022-10-07T03:09:18.682Z,68.49
2022-10-07T03:11:46.329Z,68.04
2022-10-07T03:14:14.004Z,68.17
2022-10-07T03:16:43.051Z,68.70
2022-10-07T03:19:10.831Z,68.95
2022-10-07T03:21:40.463Z,69.17
2022-10-07T03:24:08.181Z,68.88
2022-10-07T03:26:36.348Z,69.12
2022-10-07T03:29:05.356Z,68.95
2022-10-07T03:31:33.091Z,69.10
2022-10-07T03:34:02.056Z,69.19
2022-10-07T03:36:30.377Z,69.35
2022-10-07T03:38:58.566Z,69.34
2022-10-07T03:41:26.210Z,69.46
2022-10-07T03:43:57.373Z,70.00
2022-10-07T03:46:25.081Z,70.11
2022-10-07T03:48:53.227Z,70.21
2022-10-07T03:51:22.408Z,70.05
2022-10-07T03:53:50.044Z,69.96
2022-10-07T03:56:17.664Z,69.64
2022-10-07T03:58:45.260Z,69.81
2022-10-07T04:01:14.534Z,69.45
2022-10-07T04:03:42.542Z,68.87
2022-10-07T04:06:10.570Z,68.30
2022-10-07T04:08:40.971Z,68.72
2022-10-07T04:11:08.619Z,69.11
2022-10-07T04:13:36.179Z,68.98
2022-10-07T04:16:08.467Z,69.55
2022-10-07T04:18:36.104Z,70.14
2022-10-07T04:21:03.789Z,70.38
2022-10-07T04:23:31.455Z,70.47
2022-10-07T04:26:00.696Z,70.39
2022-10-07T04:28:28.432Z,70.62
2022-10-07T04:30:56.141Z,71.03
2022-10-07T04:33:25.071Z,70.56
2022-10-07T04:35:52.745Z,70.25
2022-10-07T04:38:21.722Z,70.75
2022-10-07T04:40:51.879Z,70.19
2022-10-07T04:43:23.469Z,70.52
2022-10-07T04:45:53.635Z,70.65
2022-10-07T04:48:22.547Z,70.95
2022-10-07T04:50:51.841Z,71.40
2022-10-07T04:53:20.074Z,71.52
2022-10-07T04:55:49.987Z,71.69
2022-10-07T04:58:18.459Z,71.80
2022-10-07T05:00:49.530Z,71.69
2022-10-07T05:03:19.110Z,71.42
2022-10-07T05:05:48.757Z,71.93
2022-10-07T05:08:18.536Z,71.87
2022-10-07T05:10:46.152Z,72.23
2022-10-07T05:13:16.832Z,72.25
2022-10-07T05:15:53.894Z,72.31
2022-10-07T05:18:23.105Z,72.08
2022-10-07T05:20:51.319Z,72.55
2022-10-07T05:23:24.429Z,72.47
2022-10-07T05:26:00.208Z,72.64
2022-10-07T05:28:27.948Z,72.47
2022-10-07T05:31:05.734Z,72.47
2022-10-07T05:33:33.906Z,72.20
2022-10-07T05:36:01.790Z,72.36
2022-10-07T05:38:29.709Z,72.62
2022-10-07T05:40:59.773Z,72.28
2022-10-07T05:43:28.098Z,71.90
2022-10-07T05:46:01.373Z,71.83
2022-10-07T05:48:36.671Z,71.66
2022-10-07T05:51:07.807Z,71.33
2022-10-07T05:53:35.813Z,71.18
2022-10-07T05:56:06.737Z,70.82
2022-10-07T05:58:35.402Z,71.08
2022-10-07T06:01:11.334Z,70.81
2022-10-07T06:03:43.289Z,70.79
2022-10-07T06:06:11.350Z,70.77
2022-10-07T06:08:38.885Z,70.42
2022-10-07T06:11:25.526Z,70.39
2022-10-07T06:13:55.337Z,70.55
2022-10-07T06:16:23.469Z,70.22
2022-10-07T06:18:52.926Z,70.04
2022-10-07T06:21:21.500Z,69.79
2022-10-07T06:23:52.839Z,69.26
2022-10-07T06:26:21.254Z,69.68
2022-10-07T06:28:49.040Z,69.29
2022-10-07T06:31:22.230Z,69.49
2022-10-07T06:33:50.302Z,69.60
2022-10-07T06:36:19.860Z,69.17
2022-10-07T06:38:48.769Z,69.61
2022-10-07T06:41:17.053Z,69.37
2022-10-07T06:43:45.255Z,69.34
2022-10-07T06:46:15.767Z,69.82
2022-10-07T06:48:44.552Z,70.03
2022-10-07T06:51:15.284Z,69.94
2022-10-07T06:53:44.862Z,69.67
2022-10-07T06:56:14.398Z,70.08
2022-10-07T06:58:43.447Z,69.97
2022-10-07T07:01:11.821Z,69.64
2022-10-07T07:03:41.666Z,69.12
2022-10-07T07:06:10.891Z,69.16
2022-10-07T07:08:41.055Z,68.93
2022-10-07T07:11:25.463Z,68.67
2022-10-07T07:13:53.138Z,69.39
2022-10-07T07:16:20.949Z,69.11
2022-10-07T07:18:51.886Z,69.29
2022-10-07T07:21:19.626Z,69.53
2022-10-07T07:23:47.356Z,69.39
2022-10-07T07:26:17.007Z,69.27
2022-10-07T07:28:44.778Z,68.55
2022-10-07T07:31:13.665Z,68.27
2022-10-07T07:33:41.378Z,67.74
2022-10-07T07:36:16.274Z,67.67
2022-10-07T07:38:43.972Z,67.49
2022-10-07T07:41:11.965Z,67.16
2022-10-07T07:43:40.925Z,67.10
2022-10-07T07:46:08.618Z,67.09
2022-10-07T07:48:36.262Z,66.88
2022-10-07T07:51:06.770Z,66.95
2022-10-07T07:53:35.130Z,66.63
2022-10-07T07:56:03.381Z,67.13
2022-10-07T07:58:30.961Z,67.15
2022-10-07T08:01:01.194Z,66.77
2022-10-07T08:03:28.900Z,66.64
2022-10-07T08:05:56.903Z,66.43
2022-10-07T08:08:25.016Z,66.09
2022-10-07T08:10:52.621Z,66.60
2022-10-07T08:13:20.752Z,65.97
2022-10-07T08:15:48.485Z,65.76
2022-10-07T08:18:17.476Z,65.65
2022-10-07T08:20:46.748Z,65.49
2022-10-07T08:23:14.331Z,65.40
2022-10-07T08:25:43.880Z,65.56
2022-10-07T08:28:11.543Z,65.29
2022-10-07T08:30:39.231Z,64.90
2022-10-07T08:33:06.894Z,64.04
2022-10-07T08:35:35.923Z,63.39
2022-10-07T08:38:03.470Z,62.97
2022-10-07T08:40:31.218Z,62.93
2022-10-07T08:42:59.509Z,62.54
2022-10-07T08:45:31.724Z,58.26
2022-10-07T08:48:04.329Z,49.22
2022-10-07T08:50:42.574Z,41.69
2022-10-07T08:53:20.489Z,39.21
2022-10-07T08:55:52.899Z,37.91
2022-10-07T08:58:40.936Z,34.36
2022-10-07T09:01:20.078Z,32.03
2022-10-07T09:03:56.525Z,33.50
2022-10-07T09:06:29.363Z,35.16
2022-10-07T09:09:03.230Z,37.48
2022-10-07T09:11:33.858Z,39.72
2022-10-07T09:14:09.983Z,41.58
2022-10-07T09:16:43.362Z,43.27
2022-10-07T09:19:18.179Z,44.32
2022-10-07T09:21:51.179Z,46.24
2022-10-07T09:24:21.696Z,46.61
2022-10-07T09:26:49.905Z,46.10
2022-10-07T09:29:21.079Z,43.10
2022-10-07T09:31:49.299Z,41.14
2022-10-07T09:34:22.304Z,41.29
2022-10-07T09:37:21.127Z,41.54
2022-10-07T09:39:50.812Z,42.26
2022-10-07T09:42:36.088Z,43.11
2022-10-07T09:45:18.747Z,43.77
2022-10-07T09:47:52.479Z,44.09
2022-10-07T09:50:33.609Z,44.42
2022-10-07T09:53:03.054Z,45.40
2022-10-07T09:55:37.619Z,46.52
2022-10-07T09:58:07.174Z,47.70
2022-10-07T10:00:43.850Z,48.46
2022-10-07T10:03:11.953Z,49.66
2022-10-07T10:05:42.331Z,50.33
2022-10-07T10:08:24.908Z,50.89
2022-10-07T10:10:54.540Z,51.13
2022-10-07T10:13:32.469Z,51.44
2022-10-07T10:16:01.165Z,51.02
2022-10-07T10:18:33.177Z,51.44
2022-10-07T10:21:21.230Z,51.16
2022-10-07T10:23:52.689Z,51.34
2022-10-07T10:26:33.899Z,51.57
2022-10-07T10:29:16.706Z,52.01
2022-10-07T10:32:20.987Z,53.34
2022-10-07T10:34:55.858Z,52.02
2022-10-07T10:37:28.241Z,50.51
2022-10-07T10:40:09.424Z,49.66
2022-10-07T10:42:44.396Z,50.14
2022-10-07T10:45:33.260Z,50.43
2022-10-07T10:48:30.089Z,50.53
2022-10-07T10:51:07.095Z,51.29
2022-10-07T10:53:48.457Z,52.40
2022-10-07T10:56:29.372Z,52.23
2022-10-07T10:59:11.100Z,52.39
2022-10-07T11:01:41.117Z,52.34
2022-10-07T11:04:28.338Z,52.61
2022-10-07T11:07:01.773Z,52.49
2022-10-07T11:09:36.954Z,53.08
2022-10-07T11:12:24.972Z,51.92
2022-10-07T11:14:58.031Z,49.22
2022-10-07T11:17:31.666Z,46.03
2022-10-07T11:20:08.390Z,43.13
2022-10-07T11:22:42.595Z,42.73
2022-10-07T11:25:28.181Z,40.48
2022-10-07T11:28:15.900Z,39.90
2022-10-07T11:30:51.880Z,40.81
2022-10-07T11:33:27.272Z,41.79
2022-10-07T11:36:00.244Z,42.78
2022-10-07T11:38:33.391Z,43.36
2022-10-07T11:41:08.704Z,43.58
2022-10-07T11:43:45.385Z,44.07
2022-10-07T11:46:19.212Z,44.42
2022-10-07T11:48:50.924Z,45.61
2022-10-07T11:51:25.550Z,45.09
2022-10-07T11:53:56.231Z,44.86
2022-10-07T11:56:27.013Z,45.32
2022-10-07T11:59:01.746Z,46.05
2022-10-07T12:01:55.144Z,46.92
2022-10-07T12:04:40.526Z,48.40
2022-10-07T12:07:37.875Z,47.42
2022-10-07T12:10:26.892Z,47.50
2022-10-07T12:12:56.967Z,47.61
2022-10-07T12:15:35.702Z,48.22
2022-10-07T12:18:38.759Z,48.67
2022-10-07T12:21:08.498Z,49.00
2022-10-07T12:23:43.489Z,48.46
2022-10-07T12:26:50.309Z,47.75
2022-10-07T12:29:50.127Z,46.99
2022-10-07T12:33:00.840Z,47.74
2022-10-07T12:35:56.443Z,47.98
2022-10-07T12:38:29.106Z,47.37
2022-10-07T12:41:24.851Z,47.75
2022-10-07T12:44:00.541Z,47.92
2022-10-07T12:46:33.672Z,49.07
2022-10-07T12:49:06.181Z,48.76
2022-10-07T12:51:38.633Z,48.48
2022-10-07T12:54:12.912Z,48.94
2022-10-07T12:56:44.179Z,48.97
2022-10-07T12:59:48.365Z,49.48
2022-10-07T13:02:59.540Z,49.97
2022-10-07T13:05:54.098Z,50.96
2022-10-07T13:08:54.301Z,50.56
2022-10-07T13:11:59.778Z,50.24
2022-10-07T13:14:33.256Z,50.99
2022-10-07T13:17:13.222Z,51.06
2022-10-07T13:19:49.136Z,50.81
2022-10-07T13:22:19.014Z,51.12
2022-10-07T13:24:49.893Z,51.89
2022-10-07T13:27:20.224Z,51.82
2022-10-07T13:29:48.934Z,51.81
2022-10-07T13:32:18.846Z,51.45
2022-10-07T13:34:47.257Z,50.76
2022-10-07T13:37:30.729Z,51.34
2022-10-07T13:39:59.594Z,51.44
2022-10-07T13:42:29.700Z,51.73
2022-10-07T13:45:02.483Z,51.96
2022-10-07T13:47:33.771Z,52.49
2022-10-07T13:50:03.041Z,52.52
2022-10-07T13:52:38.897Z,52.41
2022-10-07T13:55:21.278Z,52.29
2022-10-07T13:57:49.044Z,52.44
2022-10-07T14:00:17.391Z,52.39
2022-10-07T14:02:45.864Z,52.31
2022-10-07T14:05:20.398Z,53.40
2022-10-07T14:07:55.078Z,52.98
2022-10-07T14:10:24.983Z,53.76
2022-10-07T14:12:58.001Z,53.33
2022-10-07T14:15:29.034Z,53.25
2022-10-07T14:18:00.390Z,53.89
2022-10-07T14:20:31.424Z,54.15
2022-10-07T14:23:03.464Z,54.21
2022-10-07T14:25:35.448Z,54.54
2022-10-07T14:28:16.091Z,54.88
2022-10-07T14:31:02.511Z,55.19
2022-10-07T14:33:58.609Z,54.82
2022-10-07T14:36:26.635Z,55.11
2022-10-07T14:38:58.006Z,55.47
2022-10-07T14:41:28.821Z,55.41
2022-10-07T14:43:59.894Z,55.25
2022-10-07T14:46:29.350Z,55.01
2022-10-07T14:48:57.029Z,55.08
2022-10-07T14:51:27.389Z,56.48
2022-10-07T14:54:01.791Z,56.34
2022-10-07T14:56:32.183Z,56.15
2022-10-07T14:58:59.789Z,55.95
2022-10-07T15:01:29.770Z,55.58
2022-10-07T15:03:57.724Z,56.17
2022-10-07T15:06:26.312Z,56.43
2022-10-07T15:08:53.994Z,56.83
2022-10-07T15:11:23.009Z,56.98
2022-10-07T15:13:50.964Z,57.50
2022-10-07T15:16:20.656Z,57.33
2022-10-07T15:18:52.434Z,57.58
2022-10-07T15:21:20.460Z,58.20
2022-10-07T15:23:51.491Z,58.77
2022-10-07T15:26:21.295Z,59.48
2022-10-07T15:28:52.330Z,59.80
2022-10-07T15:31:19.972Z,60.27
2022-10-07T15:33:47.894Z,60.08
2022-10-07T15:36:16.013Z,60.35
2022-10-07T15:38:43.658Z,60.11
2022-10-07T15:41:29.732Z,60.51
2022-10-07T15:43:59.692Z,61.42
2022-10-07T15:46:27.978Z,61.42
2022-10-07T15:48:57.041Z,61.83
2022-10-07T15:51:25.399Z,62.28
2022-10-07T15:53:53.366Z,62.53
2022-10-07T15:56:21.084Z,62.83
2022-10-07T15:58:48.800Z,63.20
2022-10-07T16:01:17.907Z,63.17
2022-10-07T16:03:48.067Z,63.26
2022-10-07T16:06:18.329Z,63.99
2022-10-07T16:08:45.928Z,63.89
2022-10-07T16:11:14.358Z,64.32
2022-10-07T16:13:44.664Z,64.63
2022-10-07T16:16:14.659Z,65.09
2022-10-07T16:18:45.767Z,65.55
2022-10-07T16:21:15.302Z,65.82
2022-10-07T16:23:45.665Z,66.26
2022-10-07T16:26:14.987Z,66.55
2022-10-07T16:29:02.235Z,66.42
2022-10-07T16:31:31.473Z,66.44
2022-10-07T16:34:00.679Z,66.55
2022-10-07T16:36:28.297Z,66.84
2022-10-07T16:38:57.629Z,66.88
2022-10-07T16:41:25.266Z,68.40
2022-10-07T16:43:52.926Z,68.35
2022-10-07T16:46:21.696Z,68.13
2022-10-07T16:48:50.899Z,68.42
2022-10-07T16:51:22.255Z,68.89
2022-10-07T16:53:55.325Z,70.13
2022-10-07T16:56:23.971Z,69.75
2022-10-07T16:58:56.077Z,69.46
2022-10-07T17:01:23.905Z,70.68
2022-10-07T17:03:51.553Z,69.81
2022-10-07T17:06:22.917Z,69.53
2022-10-07T17:08:50.741Z,69.03
2022-10-07T17:11:29.979Z,70.70
2022-10-07T17:13:58.845Z,70.11
2022-10-07T17:16:27.423Z,69.18
2022-10-07T17:18:55.400Z,68.49
2022-10-07T17:21:24.348Z,67.68
2022-10-07T17:23:52.364Z,69.45
2022-10-07T17:26:21.011Z,71.44
2022-10-07T17:28:49.685Z,71.24
2022-10-07T17:31:18.087Z,70.06
2022-10-07T17:33:46.201Z,69.95
2022-10-07T17:36:14.228Z,71.56
2022-10-07T17:38:45.558Z,72.04
2022-10-07T17:41:16.444Z,73.41
2022-10-07T17:43:44.277Z,73.11
2022-10-07T17:46:14.017Z,70.77
2022-10-07T17:48:45.197Z,71.38
2022-10-07T17:51:14.510Z,72.69
2022-10-07T17:53:44.854Z,75.38
2022-10-07T17:56:15.673Z,74.82
2022-10-07T17:58:44.654Z,71.96
2022-10-07T18:01:14.540Z,72.47
2022-10-07T18:03:42.834Z,72.44
2022-10-07T18:06:13.149Z,71.64
2022-10-07T18:08:43.025Z,72.41
2022-10-07T18:11:11.123Z,72.91
2022-10-07T18:13:56.241Z,73.69
2022-10-07T18:16:24.499Z,74.88
2022-10-07T18:18:54.610Z,75.00
2022-10-07T18:21:23.307Z,75.03
2022-10-07T18:23:54.381Z,75.62
2022-10-07T18:26:21.911Z,75.52
2022-10-07T18:28:49.669Z,76.28
2022-10-07T18:31:18.423Z,75.79
2022-10-07T18:33:46.530Z,75.88
2022-10-07T18:36:16.398Z,75.88
2022-10-07T18:38:45.504Z,76.49
2022-10-07T18:41:16.394Z,77.18
2022-10-07T18:43:45.402Z,78.35
2022-10-07T18:46:16.287Z,77.37
2022-10-07T18:48:47.903Z,77.31
2022-10-07T18:51:16.054Z,78.10
2022-10-07T18:53:46.498Z,77.83
2022-10-07T18:56:17.419Z,78.21
2022-10-07T18:58:48.050Z,77.51
2022-10-07T19:01:18.460Z,77.61
2022-10-07T19:03:48.809Z,78.31
2022-10-07T19:06:18.773Z,78.58
2022-10-07T19:08:47.100Z,78.74
2022-10-07T19:11:18.222Z,78.50
2022-10-07T19:13:48.157Z,79.16
2022-10-07T19:16:16.962Z,79.41
2022-10-07T19:18:45.127Z,79.76
2022-10-07T19:21:13.456Z,79.92
2022-10-07T19:23:41.418Z,80.19
2022-10-07T19:26:11.535Z,80.96
2022-10-07T19:28:41.919Z,81.64
2022-10-07T19:31:15.355Z,81.80
2022-10-07T19:33:43.751Z,82.41
2022-10-07T19:36:12.344Z,81.73
2022-10-07T19:38:43.168Z,81.68
2022-10-07T19:41:12.959Z,80.86
2022-10-07T19:43:43.282Z,80.47
2022-10-07T19:46:11.435Z,80.64
2022-10-07T19:48:39.520Z,80.57
2022-10-07T19:51:09.567Z,80.84
2022-10-07T19:53:37.285Z,79.98
2022-10-07T19:56:11.343Z,79.98
2022-10-07T19:58:39.877Z,79.73
2022-10-07T20:01:11.641Z,80.07
2022-10-07T20:03:39.276Z,80.09
2022-10-07T20:06:08.472Z,80.68
2022-10-07T20:08:37.854Z,80.31
2022-10-07T20:11:06.126Z,79.61
2022-10-07T20:13:35.743Z,79.70
2022-10-07T20:16:05.870Z,79.85
2022-10-07T20:18:36.098Z,80.39
2022-10-07T20:21:08.685Z,79.91
2022-10-07T20:23:38.002Z,79.86
2022-10-07T20:26:06.915Z,80.07
2022-10-07T20:28:35.462Z,80.26
2022-10-07T20:31:04.782Z,80.57
2022-10-07T20:33:39.979Z,81.31
2022-10-07T20:36:08.681Z,81.29
2022-10-07T20:38:50.570Z,81.70
2022-10-07T20:41:35.578Z,80.83
2022-10-07T20:44:03.239Z,80.98
2022-10-07T20:46:30.949Z,81.76
2022-10-07T20:49:00.034Z,81.94
2022-10-07T20:51:28.165Z,82.45
2022-10-07T20:53:55.783Z,82.63
2022-10-07T20:56:23.563Z,82.65
2022-10-07T20:58:52.097Z,82.49
2022-10-07T21:01:19.854Z,83.15
2022-10-07T21:03:47.681Z,82.87
2022-10-07T21:06:18.498Z,82.54
2022-10-07T21:08:47.209Z,82.48
2022-10-07T21:11:15.335Z,82.93
2022-10-07T21:13:43.087Z,83.26
2022-10-07T21:16:11.051Z,83.86
2022-10-07T21:18:39.095Z,83.91
2022-10-07T21:21:07.893Z,83.34
2022-10-07T21:23:36.810Z,82.93
2022-10-07T21:26:07.152Z,82.94
2022-10-07T21:28:36.586Z,82.84
2022-10-07T21:31:08.302Z,83.04
2022-10-07T21:33:38.543Z,82.65
2022-10-07T21:36:08.275Z,82.94
2022-10-07T21:38:37.858Z,82.73
2022-10-07T21:41:12.974Z,82.84
2022-10-07T21:43:41.212Z,82.07
2022-10-07T21:46:09.360Z,81.99
2022-10-07T21:48:37.387Z,81.98
2022-10-07T21:51:09.521Z,81.11
2022-10-07T21:53:40.889Z,82.15
2022-10-07T21:56:11.764Z,82.40
2022-10-07T21:58:39.645Z,82.78
2022-10-07T22:01:12.978Z,83.25
2022-10-07T22:03:40.814Z,82.57
2022-10-07T22:06:10.664Z,82.98
2022-10-07T22:08:40.082Z,82.63
2022-10-07T22:11:10.267Z,82.54
2022-10-07T22:13:39.991Z,82.26
2022-10-07T22:16:14.412Z,81.69
2022-10-07T22:18:43.568Z,81.44
2022-10-07T22:21:13.430Z,80.77
2022-10-07T22:23:42.428Z,80.42
2022-10-07T22:26:12.880Z,80.33
2022-10-07T22:28:41.210Z,80.00
2022-10-07T22:31:10.763Z,79.56
2022-10-07T22:33:39.880Z,79.78
2022-10-07T22:36:09.972Z,79.76
2022-10-07T22:38:37.843Z,80.56
2022-10-07T22:41:10.288Z,80.71
2022-10-07T22:43:38.637Z,80.62
2022-10-07T22:46:07.413Z,80.37
2022-10-07T22:48:37.475Z,80.14
2022-10-07T22:51:08.328Z,80.48
2022-10-07T22:53:37.040Z,80.61
2022-10-07T22:56:07.944Z,80.95
2022-10-07T22:58:35.899Z,81.26
2022-10-07T23:01:04.378Z,81.09
2022-10-07T23:03:32.097Z,81.40
2022-10-07T23:06:00.663Z,81.62
2022-10-07T23:08:28.653Z,81.21
2022-10-07T23:10:57.111Z,81.20
2022-10-07T23:13:27.070Z,81.70
2022-10-07T23:15:58.885Z,81.71
2022-10-07T23:18:27.379Z,82.31
2022-10-07T23:21:01.494Z,82.33
2022-10-07T23:23:30.238Z,82.90
2022-10-07T23:25:58.073Z,82.46
2022-10-07T23:28:27.224Z,82.46
2022-10-07T23:30:56.377Z,82.13
2022-10-07T23:33:24.411Z,82.17
2022-10-07T23:35:56.701Z,82.33
2022-10-07T23:38:26.355Z,82.62
2022-10-07T23:40:54.354Z,82.64
2022-10-07T23:43:22.388Z,82.54
2022-10-07T23:45:51.933Z,81.91
2022-10-07T23:48:19.900Z,81.95
2022-10-07T23:50:50.838Z,82.47
2022-10-07T23:53:19.836Z,82.34
2022-10-07T23:55:48.999Z,82.47
2022-10-07T23:58:18.308Z,82.92
